Time;durP1;ratioP1;P1;durP2;ratioP2;P2;SDS_P1;SDS_P2;PMS_P1;PMS_P2;Temp;Humidity;BMP_temperature;BMP_pressure;BME280_temperature;BME280_humidity;BME280_pressure;Samples;Min_cycle;Max_cycle;Signal;HPM_P1;HPM_P2
2023/04/06 00:00:24;;;;;;;7.87;5.60;;;7.90;99.90;;;;;;5114945;28;20303;-75
2023/04/06 00:02:51;;;;;;;6.07;5.37;;;7.80;99.90;;;;;;5114994;28;20204;-77
2023/04/06 00:05:19;;;;;;;5.27;4.37;;;7.90;99.90;;;;;;5114616;28;20608;-77
2023/04/06 00:07:47;;;;;;;7.20;5.33;;;7.90;99.90;;;;;;5114829;28;20213;-74
2023/04/06 00:10:15;;;;;;;8.60;5.10;;;7.80;99.90;;;;;;5114402;28;20244;-76
2023/04/06 00:12:42;;;;;;;6.67;5.33;;;7.80;99.90;;;;;;5114859;28;20209;-76
2023/04/06 00:15:10;;;;;;;6.60;5.67;;;7.80;99.90;;;;;;5114672;28;20204;-79
2023/04/06 00:17:37;;;;;;;5.30;4.67;;;7.80;99.90;;;;;;5114874;28;20211;-75
2023/04/06 00:20:05;;;;;;;5.70;5.13;;;7.80;99.90;;;;;;5114919;28;20277;-72
2023/04/06 00:22:32;;;;;;;8.13;5.57;;;7.70;99.90;;;;;;5114695;28;20243;-77
2023/04/06 00:25:00;;;;;;;7.00;5.30;;;7.80;99.90;;;;;;5114895;28;20544;-81
2023/04/06 00:27:27;;;;;;;8.53;6.97;;;7.80;99.90;;;;;;5114131;28;20237;-72
2023/04/06 00:29:54;;;;;;;7.57;4.93;;;7.80;99.90;;;;;;5114669;28;20634;-72
2023/04/06 00:32:21;;;;;;;9.10;5.40;;;7.80;99.90;;;;;;5114138;28;20201;-75
2023/04/06 00:34:48;;;;;;;6.83;5.67;;;7.80;99.90;;;;;;5114442;28;20605;-76
2023/04/06 00:37:15;;;;;;;8.57;5.57;;;7.80;99.90;;;;;;5113843;28;20219;-70
2023/04/06 00:39:42;;;;;;;5.00;4.50;;;7.90;99.90;;;;;;5114249;28;20341;-73
2023/04/06 00:42:13;;;;;;;6.57;4.20;;;7.90;99.90;;;;;;5113750;28;20197;-74
2023/04/06 00:44:40;;;;;;;6.37;4.30;;;7.90;99.90;;;;;;5114250;28;20288;-74
2023/04/06 00:47:08;;;;;;;4.77;4.33;;;7.80;99.90;;;;;;5113619;28;20239;-73
2023/04/06 00:49:36;;;;;;;11.27;4.53;;;7.60;99.90;;;;;;5114205;28;20209;-73
2023/04/06 00:52:03;;;;;;;5.40;4.60;;;7.60;99.90;;;;;;5114022;28;20212;-70
2023/04/06 00:54:30;;;;;;;5.33;4.10;;;7.60;99.90;;;;;;5113861;28;20526;-74
2023/04/06 00:56:58;;;;;;;6.70;3.90;;;7.60;99.90;;;;;;5113934;28;20291;-75
2023/04/06 00:59:27;;;;;;;4.80;4.23;;;7.60;99.90;;;;;;5113699;28;20205;-78
2023/04/06 01:01:54;;;;;;;4.40;3.70;;;7.50;99.90;;;;;;5114130;28;20208;-79
2023/04/06 01:04:23;;;;;;;3.67;3.27;;;7.60;99.90;;;;;;5113523;28;20208;-76
2023/04/06 01:06:50;;;;;;;4.53;4.13;;;7.60;99.90;;;;;;5112867;28;20785;-78
2023/04/06 01:09:18;;;;;;;6.33;3.37;;;7.50;99.90;;;;;;5113163;28;20607;-78
2023/04/06 01:11:45;;;;;;;5.47;4.43;;;7.40;99.90;;;;;;5113510;28;20220;-73
2023/04/06 01:14:12;;;;;;;3.63;3.13;;;7.30;99.90;;;;;;5113386;28;20208;-74
2023/04/06 01:16:41;;;;;;;5.00;4.43;;;7.10;99.90;;;;;;5113572;28;20219;-75
2023/04/06 01:19:10;;;;;;;4.00;3.60;;;6.90;99.90;;;;;;5112866;28;20201;-71
2023/04/06 01:21:37;;;;;;;5.60;3.93;;;6.80;99.90;;;;;;5113268;28;20196;-73
2023/04/06 01:24:07;;;;;;;8.53;4.43;;;6.80;99.90;;;;;;5113762;28;20201;-75
2023/04/06 01:26:35;;;;;;;4.47;3.23;;;6.90;99.90;;;;;;5113612;28;20233;-75
2023/04/06 01:29:03;;;;;;;4.90;3.77;;;6.90;99.90;;;;;;5113871;28;20213;-76
2023/04/06 01:31:30;;;;;;;5.47;4.10;;;6.90;99.90;;;;;;5113293;28;20200;-75
2023/04/06 01:33:57;;;;;;;3.80;3.17;;;6.80;99.90;;;;;;5113192;28;20201;-74
2023/04/06 01:36:24;;;;;;;4.53;4.03;;;6.90;99.90;;;;;;5112643;28;20212;-75
2023/04/06 01:38:52;;;;;;;3.80;2.93;;;6.80;99.90;;;;;;5113198;28;20668;-74
2023/04/06 01:41:20;;;;;;;3.83;3.43;;;6.80;99.90;;;;;;5112802;28;20201;-77
2023/04/06 01:43:48;;;;;;;4.33;2.87;;;6.90;99.90;;;;;;5113127;28;20250;-76
2023/04/06 01:46:16;;;;;;;4.10;3.70;;;7.00;99.90;;;;;;5112558;28;20224;-76
2023/04/06 01:48:43;;;;;;;5.37;3.03;;;6.90;99.90;;;;;;5112850;28;20209;-74
2023/04/06 01:51:10;;;;;;;4.73;3.03;;;7.10;99.90;;;;;;5112959;28;20618;-74
2023/04/06 01:53:37;;;;;;;3.40;3.07;;;7.00;99.90;;;;;;5113071;28;20205;-75
2023/04/06 01:56:05;;;;;;;5.23;3.30;;;7.10;99.90;;;;;;5112960;28;20569;-75
2023/04/06 01:58:33;;;;;;;4.17;3.70;;;7.20;99.90;;;;;;5113190;28;20205;-75
2023/04/06 02:01:00;;;;;;;3.80;2.93;;;7.10;99.90;;;;;;5113053;28;20208;-75
2023/04/06 02:03:27;;;;;;;4.77;4.17;;;7.10;99.90;;;;;;5112130;28;20668;-81
2023/04/06 02:05:54;;;;;;;4.20;3.03;;;6.90;99.90;;;;;;5113014;28;20208;-79
2023/04/06 02:08:21;;;;;;;3.93;3.33;;;7.00;99.90;;;;;;5112639;28;20237;-80
2023/04/06 02:10:48;;;;;;;3.90;3.00;;;6.90;99.90;;;;;;5112611;28;20220;-80
2023/04/06 02:13:15;;;;;;;3.87;3.20;;;6.80;99.90;;;;;;5112405;28;20200;-80
2023/04/06 02:15:44;;;;;;;4.73;2.97;;;6.60;99.90;;;;;;5112572;28;20197;-79
2023/04/06 02:18:11;;;;;;;4.73;2.77;;;6.60;99.90;;;;;;5109993;27;20205;-79
2023/04/06 02:20:37;;;;;;;3.33;2.70;;;6.60;99.90;;;;;;5112355;28;20628;-80
2023/04/06 02:23:05;;;;;;;3.03;2.63;;;6.70;99.90;;;;;;5112224;28;20200;-86
2023/04/06 02:25:32;;;;;;;4.27;3.00;;;6.80;99.90;;;;;;5112987;28;20230;-86
2023/04/06 02:27:59;;;;;;;4.13;3.07;;;6.90;99.90;;;;;;5113027;28;20281;-86
2023/04/06 02:30:26;;;;;;;4.27;3.03;;;6.80;99.90;;;;;;5112202;28;20205;-84
2023/04/06 02:32:54;;;;;;;4.93;3.17;;;6.70;99.90;;;;;;5112203;28;20742;-84
2023/04/06 02:35:21;;;;;;;4.23;2.73;;;6.70;99.90;;;;;;5112172;28;20193;-82
2023/04/06 02:37:48;;;;;;;3.23;2.93;;;6.60;99.90;;;;;;5113987;28;20554;-82
2023/04/06 02:40:15;;;;;;;3.57;2.80;;;6.60;99.90;;;;;;5114761;28;20246;-82
2023/04/06 02:42:42;;;;;;;4.27;3.30;;;6.70;99.90;;;;;;5111708;28;20196;-81
2023/04/06 02:45:10;;;;;;;3.53;2.93;;;6.80;99.90;;;;;;5111928;28;20196;-82
2023/04/06 02:47:37;;;;;;;3.43;3.00;;;6.80;99.90;;;;;;5111638;28;20236;-81
2023/04/06 02:50:06;;;;;;;4.37;2.80;;;6.70;99.90;;;;;;5112237;28;20201;-76
2023/04/06 02:52:33;;;;;;;2.87;2.67;;;6.60;99.90;;;;;;5112120;28;20197;-70
2023/04/06 02:55:00;;;;;;;3.47;3.17;;;6.70;99.90;;;;;;5112200;28;20205;-82
2023/04/06 02:57:27;;;;;;;3.70;3.30;;;6.70;99.90;;;;;;5111215;28;20629;-75
2023/04/06 02:59:54;;;;;;;5.57;2.97;;;6.70;99.90;;;;;;5110480;28;20209;-83
2023/04/06 03:02:21;;;;;;;2.83;2.53;;;6.60;99.90;;;;;;5110860;28;20200;-83
2023/04/06 03:04:48;;;;;;;4.30;3.00;;;6.60;99.90;;;;;;5111569;28;20193;-82
2023/04/06 03:07:17;;;;;;;3.50;2.63;;;6.70;99.90;;;;;;5111164;28;20232;-77
2023/04/06 03:09:44;;;;;;;2.73;2.30;;;6.70;99.90;;;;;;5112794;28;20231;-81
2023/04/06 03:12:11;;;;;;;4.77;2.70;;;6.80;99.90;;;;;;5113071;28;20196;-78
2023/04/06 03:14:38;;;;;;;5.27;2.43;;;6.90;99.90;;;;;;5111548;28;20672;-72
2023/04/06 03:17:05;;;;;;;4.17;2.90;;;7.00;99.90;;;;;;5111505;28;20219;-81
2023/04/06 03:19:32;;;;;;;7.17;3.13;;;7.20;99.90;;;;;;5111877;28;20205;-76
2023/04/06 03:21:59;;;;;;;5.67;3.77;;;7.30;99.90;;;;;;5111852;28;20231;-80
2023/04/06 03:24:28;;;;;;;4.43;3.60;;;7.30;99.90;;;;;;5110980;28;20211;-76
2023/04/06 03:26:54;;;;;;;3.63;2.33;;;7.50;99.90;;;;;;5111429;28;20285;-75
2023/04/06 03:29:21;;;;;;;4.30;3.47;;;7.40;99.90;;;;;;5111981;28;20208;-85
2023/04/06 03:31:49;;;;;;;4.50;2.70;;;7.40;99.90;;;;;;5111363;28;20254;-87
2023/04/06 03:34:15;;;;;;;5.63;2.70;;;7.40;99.90;;;;;;5111189;28;20216;-78
2023/04/06 03:36:42;;;;;;;2.77;2.53;;;7.40;99.90;;;;;;5111371;28;20213;-80
2023/04/06 03:39:09;;;;;;;3.23;2.90;;;7.50;99.90;;;;;;5110837;28;20209;-82
2023/04/06 03:41:38;;;;;;;4.23;2.97;;;7.40;99.90;;;;;;5113978;28;20683;-80
2023/04/06 03:44:06;;;;;;;3.17;2.57;;;7.50;99.90;;;;;;5113334;28;20208;-81
2023/04/06 03:46:33;;;;;;;3.77;2.87;;;7.50;99.90;;;;;;5111033;28;20265;-78
2023/04/06 03:49:00;;;;;;;2.40;2.20;;;7.50;99.90;;;;;;5111685;28;20618;-82
2023/04/06 03:51:28;;;;;;;2.90;2.23;;;7.50;99.90;;;;;;5110924;28;20204;-81
2023/04/06 03:53:55;;;;;;;3.00;2.37;;;7.70;99.90;;;;;;5111424;28;20212;-84
2023/04/06 03:56:22;;;;;;;4.03;2.67;;;7.60;99.90;;;;;;5111007;28;20398;-84
2023/04/06 03:58:51;;;;;;;3.00;2.57;;;7.60;99.90;;;;;;5111108;28;20201;-83
2023/04/06 04:01:18;;;;;;;4.57;3.47;;;7.60;99.90;;;;;;5110743;28;20201;-85
2023/04/06 04:03:45;;;;;;;9.27;4.33;;;7.60;99.90;;;;;;5111338;28;20239;-74
2023/04/06 04:06:12;;;;;;;2.83;2.53;;;7.60;99.90;;;;;;5111049;28;20212;-82
2023/04/06 04:08:39;;;;;;;2.97;2.60;;;7.50;99.90;;;;;;5111526;28;20240;-81
2023/04/06 04:11:06;;;;;;;3.03;2.43;;;7.60;99.90;;;;;;5111143;28;20265;-69
2023/04/06 04:13:33;;;;;;;5.60;2.50;;;7.60;99.90;;;;;;5113057;28;20212;-69
2023/04/06 04:16:01;;;;;;;3.07;2.73;;;7.60;99.90;;;;;;5113180;28;20208;-84
2023/04/06 04:18:28;;;;;;;3.07;2.77;;;7.60;99.90;;;;;;5111215;28;20201;-73
2023/04/06 04:20:55;;;;;;;5.03;2.70;;;7.60;99.90;;;;;;5111140;28;20597;-73
2023/04/06 04:23:22;;;;;;;5.13;2.47;;;7.60;99.90;;;;;;5110563;28;20204;-76
2023/04/06 04:25:50;;;;;;;5.80;3.40;;;7.60;99.90;;;;;;5110837;28;20680;-74
2023/04/06 04:28:17;;;;;;;5.40;2.73;;;7.50;99.90;;;;;;5110132;28;20281;-77
2023/04/06 04:30:45;;;;;;;2.47;2.27;;;7.60;99.90;;;;;;5110556;28;20577;-81
2023/04/06 04:33:13;;;;;;;4.53;2.27;;;7.60;99.90;;;;;;5110451;28;20652;-80
2023/04/06 04:35:40;;;;;;;4.40;2.77;;;7.60;99.90;;;;;;5111138;28;20205;-78
2023/04/06 04:38:07;;;;;;;3.50;2.77;;;7.70;99.90;;;;;;5110897;28;20205;-72
2023/04/06 04:40:34;;;;;;;4.63;2.60;;;7.60;99.90;;;;;;5111189;28;20282;-76
2023/04/06 04:43:01;;;;;;;3.10;2.80;;;7.70;99.90;;;;;;5112074;28;20196;-71
2023/04/06 04:45:28;;;;;;;3.37;2.87;;;7.70;99.90;;;;;;5114206;28;20213;-72
2023/04/06 04:47:55;;;;;;;3.40;3.03;;;7.60;99.90;;;;;;5114059;28;20284;-73
2023/04/06 04:50:23;;;;;;;2.87;2.37;;;7.60;99.90;;;;;;5113785;28;20238;-72
2023/04/06 04:52:50;;;;;;;4.60;3.33;;;7.70;99.90;;;;;;5114236;28;20205;-70
2023/04/06 04:55:18;;;;;;;3.80;2.73;;;7.70;99.90;;;;;;5113522;28;20200;-71
2023/04/06 04:57:45;;;;;;;4.30;2.67;;;7.70;99.90;;;;;;5113703;28;20291;-76
2023/04/06 05:00:13;;;;;;;4.23;3.13;;;7.60;99.90;;;;;;5113061;28;20205;-78
2023/04/06 05:02:40;;;;;;;4.50;3.07;;;7.50;99.90;;;;;;5113885;28;20575;-77
2023/04/06 05:05:08;;;;;;;4.33;2.93;;;7.50;99.90;;;;;;5113043;28;20668;-73
2023/04/06 05:07:36;;;;;;;5.43;3.53;;;7.40;99.90;;;;;;5113955;28;20255;-77
2023/04/06 05:10:04;;;;;;;4.93;2.77;;;7.50;99.90;;;;;;5113658;28;20205;-73
2023/04/06 05:12:31;;;;;;;7.97;3.03;;;7.40;99.90;;;;;;5112442;28;20236;-79
2023/04/06 05:14:58;;;;;;;3.20;2.90;;;7.40;99.90;;;;;;5113826;28;20212;-78
2023/04/06 05:17:25;;;;;;;4.90;2.90;;;7.30;99.90;;;;;;5113331;28;20680;-76
2023/04/06 05:19:52;;;;;;;3.73;2.93;;;7.40;99.90;;;;;;5113633;28;20209;-78
2023/04/06 05:22:19;;;;;;;4.03;3.13;;;7.30;99.90;;;;;;5113270;28;20583;-76
2023/04/06 05:24:48;;;;;;;4.60;3.00;;;7.30;99.90;;;;;;5113548;28;20204;-77
2023/04/06 05:27:15;;;;;;;6.30;4.00;;;7.40;99.90;;;;;;5112596;28;20675;-79
2023/04/06 05:29:42;;;;;;;4.33;3.70;;;7.40;99.90;;;;;;5113777;28;20256;-75
2023/04/06 05:32:09;;;;;;;5.70;3.23;;;7.30;99.90;;;;;;5113292;28;20571;-74
2023/04/06 05:34:37;;;;;;;5.70;3.50;;;7.20;99.90;;;;;;5113344;28;20200;-73
2023/04/06 05:37:04;;;;;;;3.20;2.87;;;7.30;99.90;;;;;;5113386;28;20671;-77
2023/04/06 05:39:31;;;;;;;3.93;3.37;;;7.20;99.90;;;;;;5113607;28;20209;-76
2023/04/06 05:42:03;;;;;;;5.10;3.00;;;7.10;99.90;;;;;;5113230;28;20269;-73
2023/04/06 05:44:30;;;;;;;7.07;3.33;;;7.20;99.90;;;;;;5112958;28;20207;-75
2023/04/06 05:46:57;;;;;;;4.87;3.47;;;7.10;99.90;;;;;;5113214;28;20680;-75
2023/04/06 05:49:24;;;;;;;5.30;4.40;;;7.20;99.90;;;;;;5112608;28;20244;-76
2023/04/06 05:51:51;;;;;;;5.57;4.10;;;7.20;99.90;;;;;;5113147;28;20288;-76
2023/04/06 05:54:18;;;;;;;5.43;4.17;;;7.20;99.90;;;;;;5112108;28;20208;-77
2023/04/06 05:56:45;;;;;;;7.17;3.87;;;7.30;99.90;;;;;;5112836;28;20571;-76
2023/04/06 05:59:15;;;;;;;4.23;3.53;;;7.40;99.90;;;;;;5112686;28;20205;-76
2023/04/06 06:01:42;;;;;;;4.23;3.67;;;7.50;99.90;;;;;;5112822;28;20208;-75
2023/04/06 06:04:09;;;;;;;5.83;3.50;;;7.50;99.90;;;;;;5112279;28;20671;-75
2023/04/06 06:06:36;;;;;;;3.50;3.03;;;7.60;99.90;;;;;;5112687;28;20201;-75
2023/04/06 06:09:03;;;;;;;4.73;3.23;;;7.70;99.90;;;;;;5112772;28;20247;-73
2023/04/06 06:11:31;;;;;;;5.10;3.77;;;7.80;99.90;;;;;;5112146;28;20254;-73
2023/04/06 06:13:58;;;;;;;5.07;4.10;;;7.80;99.90;;;;;;5112516;28;20687;-73
2023/04/06 06:16:26;;;;;;;7.10;3.70;;;7.80;99.90;;;;;;5112102;28;20683;-76
2023/04/06 06:18:53;;;;;;;5.07;4.03;;;7.80;99.90;;;;;;5112537;28;20317;-74
2023/04/06 06:21:20;;;;;;;6.27;4.40;;;7.80;99.90;;;;;;5112143;28;20200;-73
2023/04/06 06:23:49;;;;;;;9.10;4.50;;;7.90;99.90;;;;;;5112561;28;20205;-74
2023/04/06 06:26:16;;;;;;;7.63;4.63;;;7.90;99.90;;;;;;5109925;28;20289;-73
2023/04/06 06:28:43;;;;;;;6.20;4.57;;;7.90;99.90;;;;;;5111861;28;20239;-75
2023/04/06 06:31:10;;;;;;;8.60;7.80;;;8.00;99.90;;;;;;5111467;28;20277;-77
2023/04/06 06:33:38;;;;;;;19.43;14.30;;;8.00;99.90;;;;;;5112222;28;20207;-78
2023/04/06 06:36:06;;;;;;;15.43;14.03;;;8.00;99.90;;;;;;5112177;28;20209;-78
2023/04/06 06:38:33;;;;;;;106.93;65.30;;;8.30;99.90;;;;;;5111944;28;20208;-71
2023/04/06 06:41:00;;;;;;;19.07;14.27;;;8.40;99.90;;;;;;5112355;28;20204;-73
2023/04/06 06:43:27;;;;;;;11.73;8.77;;;8.60;99.90;;;;;;5111581;28;20207;-76
2023/04/06 06:45:54;;;;;;;8.90;7.93;;;8.60;99.90;;;;;;5110285;28;20209;-76
2023/04/06 06:48:21;;;;;;;12.43;6.63;;;8.70;99.90;;;;;;5109491;28;20282;-76
2023/04/06 06:50:50;;;;;;;12.93;7.57;;;8.60;99.90;;;;;;5111326;28;20301;-81
2023/04/06 06:53:17;;;;;;;16.23;7.93;;;8.70;99.90;;;;;;5110724;28;20217;-74
2023/04/06 06:55:45;;;;;;;12.27;4.40;;;8.70;99.90;;;;;;5110155;28;20201;-73
2023/04/06 06:58:12;;;;;;;6.70;4.00;;;8.60;99.90;;;;;;5111054;28;20246;-74
2023/04/06 07:00:39;;;;;;;7.23;3.50;;;8.40;99.90;;;;;;5111623;28;20197;-74
2023/04/06 07:03:06;;;;;;;5.47;3.67;;;8.30;99.90;;;;;;5110964;28;20292;-70
2023/04/06 07:05:33;;;;;;;6.73;3.97;;;8.60;99.90;;;;;;5111083;28;20197;-74
2023/04/06 07:08:01;;;;;;;5.67;4.17;;;8.70;99.90;;;;;;5111510;28;20606;-73
2023/04/06 07:10:28;;;;;;;13.63;4.60;;;8.90;99.90;;;;;;5111582;28;20215;-75
2023/04/06 07:12:55;;;;;;;7.90;4.17;;;8.90;99.90;;;;;;5111009;28;20201;-75
2023/04/06 07:15:22;;;;;;;10.27;3.93;;;8.60;99.90;;;;;;5110991;28;20217;-74
2023/04/06 07:17:50;;;;;;;11.00;5.17;;;8.70;99.90;;;;;;5111017;28;20216;-73
2023/04/06 07:20:17;;;;;;;6.10;3.93;;;8.90;99.90;;;;;;5110456;28;20211;-71
2023/04/06 07:22:45;;;;;;;8.57;4.30;;;8.90;99.90;;;;;;5111161;28;20208;-72
2023/04/06 07:25:13;;;;;;;6.77;5.33;;;9.00;99.90;;;;;;5109428;28;20234;-70
2023/04/06 07:27:40;;;;;;;10.80;4.67;;;9.00;99.90;;;;;;5110885;28;20205;-71
2023/04/06 07:30:09;;;;;;;7.10;4.27;;;9.10;99.90;;;;;;5110380;28;20703;-71
2023/04/06 07:32:36;;;;;;;8.17;4.23;;;9.20;99.90;;;;;;5111136;28;20201;-70
2023/04/06 07:35:03;;;;;;;7.50;5.43;;;9.50;99.90;;;;;;5111664;28;20231;-71
2023/04/06 07:37:30;;;;;;;10.63;5.40;;;9.90;99.90;;;;;;5110970;28;20215;-72
2023/04/06 07:39:57;;;;;;;10.93;4.63;;;10.20;99.90;;;;;;5111240;28;20266;-73
2023/04/06 07:42:25;;;;;;;7.80;4.60;;;10.30;99.90;;;;;;5110283;28;20223;-72
2023/04/06 07:44:52;;;;;;;5.07;4.30;;;10.40;99.90;;;;;;5111134;28;20204;-72
2023/04/06 07:47:19;;;;;;;8.10;4.43;;;10.50;99.90;;;;;;5110807;28;20209;-73
2023/04/06 07:49:46;;;;;;;7.33;4.50;;;10.50;99.90;;;;;;5111171;28;20232;-74
2023/04/06 07:52:13;;;;;;;8.27;4.17;;;10.70;99.90;;;;;;5108769;28;20230;-72
2023/04/06 07:54:42;;;;;;;7.97;3.90;;;10.70;99.90;;;;;;5110797;28;20212;-72
2023/04/06 07:57:09;;;;;;;5.87;3.87;;;10.80;99.90;;;;;;5109866;28;20240;-73
2023/04/06 07:59:37;;;;;;;5.80;3.80;;;10.70;99.90;;;;;;5111165;28;20208;-73
2023/04/06 08:02:05;;;;;;;7.40;4.43;;;10.70;99.90;;;;;;5110396;28;20261;-73
2023/04/06 08:04:32;;;;;;;6.37;3.37;;;10.60;99.90;;;;;;5116327;28;20204;-72
2023/04/06 08:06:59;;;;;;;6.97;3.77;;;10.50;99.90;;;;;;5112928;28;20274;-72
2023/04/06 08:09:26;;;;;;;5.13;3.43;;;10.50;99.90;;;;;;5110392;28;20243;-73
2023/04/06 08:11:54;;;;;;;4.97;3.43;;;10.70;99.90;;;;;;5110459;28;20212;-73
2023/04/06 08:14:21;;;;;;;5.50;3.57;;;10.90;99.90;;;;;;5109566;28;20196;-73
2023/04/06 08:16:49;;;;;;;4.53;3.67;;;10.90;99.90;;;;;;5110683;28;20201;-73
2023/04/06 08:19:17;;;;;;;6.77;3.70;;;11.00;99.90;;;;;;5113622;28;20368;-73
2023/04/06 08:21:44;;;;;;;4.37;3.43;;;11.20;99.90;;;;;;5113820;28;20383;-72
2023/04/06 08:24:11;;;;;;;6.83;3.40;;;11.30;99.90;;;;;;5113700;28;20733;-72
2023/04/06 08:26:38;;;;;;;6.80;3.23;;;11.50;99.90;;;;;;5114583;28;20661;-72
2023/04/06 08:29:07;;;;;;;4.90;3.90;;;11.60;99.90;;;;;;5114321;28;20278;-72
2023/04/06 08:31:34;;;;;;;4.37;3.60;;;11.70;99.90;;;;;;5114514;28;20246;-73
2023/04/06 08:34:04;;;;;;;5.73;3.60;;;11.70;99.90;;;;;;5114712;28;20197;-72
2023/04/06 08:36:31;;;;;;;5.43;4.73;;;11.90;99.90;;;;;;5114605;28;20205;-72
2023/04/06 08:38:58;;;;;;;6.32;4.03;;;12.20;99.90;;;;;;5114568;28;20236;-72
2023/04/06 08:41:25;;;;;;;5.70;3.70;;;12.30;99.90;;;;;;5113870;28;20197;-72
2023/04/06 08:43:58;;;;;;;6.22;4.32;;;12.60;99.90;;;;;;5114342;28;20197;-72
2023/04/06 08:46:29;;;;;;;5.75;3.35;;;12.90;99.90;;;;;;5113759;28;20208;-72
2023/04/06 08:48:56;;;;;;;5.30;3.80;;;13.10;99.90;;;;;;5113247;27;20319;-73
2023/04/06 08:51:26;;;;;;;7.43;3.35;;;12.90;99.90;;;;;;5112946;28;20250;-72
2023/04/06 08:53:54;;;;;;;4.07;3.67;;;12.80;99.90;;;;;;5114205;28;21117;-72
2023/04/06 08:56:22;;;;;;;4.47;3.65;;;12.70;99.90;;;;;;5113196;28;20212;-72
2023/04/06 08:58:50;;;;;;;5.07;2.70;;;12.50;99.90;;;;;;5112850;28;20201;-72
2023/04/06 09:01:22;;;;;;;4.45;2.90;;;12.40;99.90;;;;;;5113898;28;20230;-72
2023/04/06 09:03:51;;;;;;;3.15;2.85;;;12.40;99.90;;;;;;5113532;28;20201;-72
2023/04/06 09:06:18;;;;;;;4.60;3.35;;;12.40;99.90;;;;;;5113200;28;20695;-72
2023/04/06 09:08:46;;;;;;;5.25;3.28;;;12.30;99.90;;;;;;5113697;28;20239;-72
2023/04/06 09:11:14;;;;;;;5.18;3.05;;;12.40;99.90;;;;;;5111859;28;20213;-72
2023/04/06 09:13:48;;;;;;;4.75;3.35;;;12.40;99.90;;;;;;5113514;28;20208;-72
2023/04/06 09:16:16;;;;;;;4.53;2.95;;;12.60;99.90;;;;;;5113286;28;20604;-72
2023/04/06 09:18:43;;;;;;;5.63;2.83;;;12.70;99.90;;;;;;5113029;28;20244;-72
2023/04/06 09:21:11;;;;;;;3.72;3.08;;;12.80;99.90;;;;;;5113098;28;20209;-72
2023/04/06 09:23:38;;;;;;;3.75;3.35;;;13.00;99.90;;;;;;5112877;28;20201;-72
2023/04/06 09:26:11;;;;;;;6.38;3.58;;;13.20;99.90;;;;;;5113478;28;20211;-72
2023/04/06 09:28:49;;;;;;;7.53;3.88;;;13.20;99.90;;;;;;5112714;28;20577;-72
2023/04/06 09:31:18;;;;;;;11.23;3.72;;;13.10;99.90;;;;;;5112970;28;20204;-72
2023/04/06 09:33:46;;;;;;;6.47;3.15;;;13.20;99.90;;;;;;5113055;28;20197;-73
2023/04/06 09:36:15;;;;;;;3.92;3.17;;;13.10;99.90;;;;;;5112985;28;20287;-72
2023/04/06 09:38:54;;;;;;;4.95;3.40;;;13.50;99.90;;;;;;5113285;28;20211;-72
2023/04/06 09:41:26;;;;;;;9.30;4.22;;;13.90;99.90;;;;;;5112643;28;20261;-72
2023/04/06 09:44:03;;;;;;;4.63;3.15;;;14.30;99.90;;;;;;5113071;28;20672;-72
2023/04/06 09:46:33;;;;;;;7.38;3.45;;;14.50;99.90;;;;;;5113083;28;20232;-72
2023/04/06 09:49:02;;;;;;;4.35;3.63;;;14.70;99.90;;;;;;5112979;28;20315;-72
2023/04/06 09:51:32;;;;;;;7.65;2.75;;;15.00;99.90;;;;;;5112919;28;20205;-73
2023/04/06 09:54:02;;;;;;;8.07;2.75;;;16.40;99.90;;;;;;5113008;28;20209;-73
2023/04/06 09:56:38;;;;;;;5.07;2.92;;;17.10;99.90;;;;;;5112777;28;20215;-72
2023/04/06 09:59:12;;;;;;;3.95;2.70;;;16.90;99.90;;;;;;5112888;28;20211;-72
2023/04/06 10:01:41;;;;;;;3.78;2.25;;;16.50;99.90;;;;;;5112566;28;20208;-72
2023/04/06 10:04:22;;;;;;;2.25;1.83;;;16.30;99.90;;;;;;5112331;28;20287;-72
2023/04/06 10:06:52;;;;;;;4.65;2.47;;;15.90;99.90;;;;;;5112446;28;20262;-72
2023/04/06 10:09:19;;;;;;;2.75;2.55;;;16.00;99.90;;;;;;5110479;28;20268;-72
2023/04/06 10:11:50;;;;;;;5.85;2.70;;;16.20;99.90;;;;;;5109710;28;20695;-71
2023/04/06 10:14:17;;;;;;;3.25;2.85;;;16.10;99.90;;;;;;5117390;27;20244;-70
2023/04/06 10:16:44;;;;;;;2.65;2.35;;;16.00;99.90;;;;;;5107430;28;20228;-70
2023/04/06 10:19:17;;;;;;;3.90;2.17;;;15.80;99.90;;;;;;5112016;28;20587;-71
2023/04/06 10:21:48;;;;;;;3.65;1.92;;;15.60;99.90;;;;;;5113423;27;20238;-70
2023/04/06 10:24:15;;;;;;;2.25;1.88;;;15.20;99.90;;;;;;5131615;27;20208;-71
2023/04/06 10:26:42;;;;;;;4.05;2.05;;;15.00;99.90;;;;;;5132758;27;20207;-71
2023/04/06 10:29:11;;;;;;;3.83;2.53;;;16.30;99.90;;;;;;5113997;27;20240;-70
2023/04/06 10:31:43;;;;;;;3.70;2.47;;;18.60;99.90;;;;;;5110529;28;20685;-72
2023/04/06 10:34:10;;;;;;;4.38;2.60;;;17.40;99.90;;;;;;5110639;28;20292;-70
2023/04/06 10:36:37;;;;;;;2.70;2.45;;;16.30;99.90;;;;;;5111304;28;20209;-71
2023/04/06 10:39:06;;;;;;;3.13;2.65;;;15.70;99.90;;;;;;5111694;28;20212;-71
2023/04/06 10:41:34;;;;;;;5.05;2.20;;;15.40;99.90;;;;;;5111047;28;20220;-74
2023/04/06 10:44:02;;;;;;;4.75;2.35;;;15.40;99.90;;;;;;5111971;28;20200;-74
2023/04/06 10:46:32;;;;;;;2.30;2.10;;;15.40;99.90;;;;;;5111379;28;20587;-74
2023/04/06 10:49:00;;;;;;;3.58;2.03;;;15.50;99.90;;;;;;5091566;28;20209;-74
2023/04/06 10:51:28;;;;;;;3.80;1.77;;;15.70;99.90;;;;;;5103071;28;20257;-74
2023/04/06 10:53:57;;;;;;;2.83;1.52;;;15.80;99.90;;;;;;5111509;28;20201;-73
2023/04/06 10:56:27;;;;;;;3.20;2.10;;;15.90;99.90;;;;;;5111285;28;20215;-74
2023/04/06 10:58:56;;;;;;;1.95;1.70;;;15.80;99.90;;;;;;5111384;27;20213;-75
2023/04/06 11:01:24;;;;;;;3.72;1.80;;;15.80;99.90;;;;;;5111168;28;20204;-73
2023/04/06 11:03:55;;;;;;;4.13;1.92;;;16.10;99.90;;;;;;5111410;28;20238;-73
2023/04/06 11:06:23;;;;;;;3.30;3.00;;;16.10;99.90;;;;;;5110994;28;20208;-74
2023/04/06 11:08:50;;;;;;;3.15;1.67;;;15.90;99.90;;;;;;5110849;28;20270;-75
2023/04/06 11:11:20;;;;;;;1.50;1.40;;;16.10;99.90;;;;;;5110892;28;20641;-74
2023/04/06 11:13:50;;;;;;;3.13;1.90;;;16.20;99.90;;;;;;5111621;28;20200;-74
2023/04/06 11:16:19;;;;;;;3.60;2.47;;;16.30;99.90;;;;;;5110750;28;20216;-74
2023/04/06 11:18:56;;;;;;;3.85;1.50;;;16.30;99.90;;;;;;5114052;27;20579;-74
2023/04/06 11:21:34;;;;;;;1.95;1.73;;;16.40;99.90;;;;;;5111078;28;20767;-74
2023/04/06 11:24:11;;;;;;;1.83;1.52;;;16.50;99.90;;;;;;5110074;28;20288;-73
2023/04/06 11:26:43;;;;;;;5.25;2.97;;;16.40;99.90;;;;;;5107357;28;20213;-74
2023/04/06 11:29:11;;;;;;;6.00;2.63;;;16.30;99.90;;;;;;5109947;28;20227;-75
2023/04/06 11:31:42;;;;;;;3.58;2.17;;;16.40;99.90;;;;;;5109321;28;20212;-75
2023/04/06 11:34:16;;;;;;;2.42;1.95;;;16.60;99.90;;;;;;5109341;28;20628;-75
2023/04/06 11:36:45;;;;;;;2.35;2.15;;;16.60;99.90;;;;;;5111063;28;20258;-75
2023/04/06 11:39:13;;;;;;;1.50;1.40;;;16.80;99.90;;;;;;5109110;28;20215;-71
2023/04/06 11:41:40;;;;;;;2.00;1.60;;;16.80;99.90;;;;;;5108489;28;20209;-71
2023/04/06 11:44:07;;;;;;;1.92;1.75;;;16.90;99.90;;;;;;5110648;28;20288;-71
2023/04/06 11:46:34;;;;;;;1.70;1.60;;;16.80;99.90;;;;;;5110178;28;20204;-71
2023/04/06 11:49:03;;;;;;;1.63;1.52;;;16.80;99.90;;;;;;5108958;28;20587;-71
2023/04/06 11:51:31;;;;;;;1.63;1.52;;;16.80;99.90;;;;;;5111253;28;20236;-73
2023/04/06 11:53:58;;;;;;;2.15;1.40;;;16.80;99.90;;;;;;5114471;27;20196;-72
2023/04/06 11:56:27;;;;;;;1.40;1.30;;;16.90;99.90;;;;;;5111324;27;20201;-72
2023/04/06 11:58:56;;;;;;;1.70;1.50;;;16.90;99.90;;;;;;5110398;28;20269;-73
2023/04/06 12:01:24;;;;;;;3.95;1.50;;;17.10;99.90;;;;;;5114540;28;20404;-74
2023/04/06 12:03:52;;;;;;;1.38;1.27;;;17.20;99.90;;;;;;5114489;28;20702;-75
2023/04/06 12:06:19;;;;;;;1.55;1.27;;;17.30;99.90;;;;;;5122627;27;20196;-73
2023/04/06 12:08:48;;;;;;;2.08;1.15;;;17.20;99.90;;;;;;5122843;27;20584;-73
2023/04/06 12:11:15;;;;;;;2.97;1.20;;;17.20;99.90;;;;;;5112441;28;20313;-75
2023/04/06 12:13:42;;;;;;;2.08;1.67;;;17.10;99.90;;;;;;5118631;27;20204;-76
2023/04/06 12:16:09;;;;;;;2.20;2.10;;;17.30;99.90;;;;;;5113450;28;20205;-76
2023/04/06 12:18:36;;;;;;;2.08;1.30;;;17.20;99.90;;;;;;5123292;27;20619;-76
2023/04/06 12:21:03;;;;;;;2.75;1.08;;;17.30;99.90;;;;;;5114712;28;20591;-77
2023/04/06 12:23:30;;;;;;;1.83;1.27;;;17.40;99.90;;;;;;5114060;28;20584;-75
2023/04/06 12:25:58;;;;;;;1.80;1.50;;;17.80;99.90;;;;;;5114007;28;20212;-76
2023/04/06 12:28:26;;;;;;;1.33;1.23;;;18.00;99.90;;;;;;5104750;27;20207;-74
2023/04/06 12:30:53;;;;;;;1.98;1.10;;;18.00;99.90;;;;;;5107155;28;20240;-74
2023/04/06 12:33:21;;;;;;;1.60;1.10;;;17.90;99.90;;;;;;5098553;28;20212;-77
2023/04/06 12:35:48;;;;;;;1.30;1.20;;;17.90;99.90;;;;;;5113703;27;20233;-74
2023/04/06 12:38:15;;;;;;;1.48;1.35;;;17.70;99.90;;;;;;5111403;27;20205;-75
2023/04/06 12:40:43;;;;;;;4.00;1.20;;;17.90;99.90;;;;;;5112337;27;20773;-75
2023/04/06 12:43:12;;;;;;;3.90;0.93;;;18.30;99.90;;;;;;5111497;28;20219;-75
2023/04/06 12:45:40;;;;;;;2.05;1.17;;;18.30;99.90;;;;;;5113449;28;20204;-75
2023/04/06 12:48:07;;;;;;;2.42;1.23;;;18.30;99.90;;;;;;5113831;28;20207;-76
2023/04/06 12:50:34;;;;;;;9.43;2.85;;;18.20;99.90;;;;;;5114191;28;20232;-77
2023/04/06 12:53:01;;;;;;;2.13;1.30;;;18.10;99.90;;;;;;5114344;28;20212;-78
2023/04/06 12:55:33;;;;;;;0.88;0.80;;;18.10;99.90;;;;;;5112913;28;20296;-76